AIRPORT_AIRPORT_METAR
METAR FOR GMFF
ADDS - METARS form results

(1504 UTC 18 August 2019)
Data provider http://aviationweather.gov/metar/data/
 
METAR text: GMFF 181500Z 32016KT 290V010 9999 FEW033 35/13 Q1016 NOSIG
Conditions at: GMFF (FES-SAIS , MA) observed 1500 UTC 18 August 2019
Temperature: 35.0°C (95°F)
Dewpoint: 13.0°C (55°F) [RH = 27%]
Pressure (altimeter): 30.00 inches Hg (1016.0 mb)
Winds: from the NW (320 degrees) at 18 MPH (16 knots; 8.2 m/s)
Visibility: 6 or more miles (10+ km)
Ceiling: at least 12,000 feet AGL
Clouds: few clouds at 3300 feet AGL
Weather: no significant weather observed at this time

METAR text: GMFF 181430Z 30012KT 260V340 9999 FEW033 35/13 Q1017 NOSIG
Conditions at: GMFF (FES-SAIS , MA) observed 1430 UTC 18 August 2019
Temperature: 35.0°C (95°F)
Dewpoint: 13.0°C (55°F) [RH = 27%]
Pressure (altimeter): 30.03 inches Hg (1017.0 mb)
Winds: from the WNW (300 degrees) at 14 MPH (12 knots; 6.2 m/s)
Visibility: 6 or more miles (10+ km)
Ceiling: at least 12,000 feet AGL
Clouds: few clouds at 3300 feet AGL
Weather: no significant weather observed at this time

Forecast for: GMFF (FES-SAIS , MA)
Text: TAF GMFF 181100Z 1812/1918 32012KT FEW033
Forecast period: 1200 to 1500 UTC 18 August 2019
Forecast type: FROM: standard forecast or significant change
Winds: from the NW (320 degrees) at 14 MPH (12 knots; 6.2 m/s)
Visibility: missing
Ceiling: at least 12,000 feet AGL
Clouds: few clouds at 3300 feet AGL
Weather: no significant weather forecast for this period
Text: BECMG 1815/1815 32016KT SCT033
Forecast period: 1500 to 2000 UTC 18 August 2019
Forecast type: BECOMING: Conditions expected to become as follows by 1500 UTC 18 August 2019
Winds: from the NW (320 degrees) at 18 MPH (16 knots; 8.2 m/s)
Visibility: missing
Ceiling: at least 12,000 feet AGL
Clouds: scattered clouds at 3300 feet AGL
Weather: no significant weather forecast for this period
Text: BECMG 1820/1824 28006KT CAVOK
Forecast period: 2000 UTC 18 August 2019 to 1800 UTC 19 August 2019
Forecast type: BECOMING: Conditions expected to become as follows by 0000 UTC 19 August 2019
Winds: from the W (280 degrees) at 7 MPH (6 knots; 3.1 m/s)
Visibility: 6 or more miles 10+ km)
Ceiling: unknown
Clouds: missing
Weather: NSW  (no significant weather)

 AIRPORT_AIRPORT_MAP

 AIRPORT_RUNWAY_INFO
AIRPORT_RUNWAY 09 AIRPORT_RUNWAY_LENGTH 10499 ft AIRPORT_RUNWAY_WIDTH 148 ft
AIRPORT_RUNWAY_ELEVATION 1854 ft AIRPORT_RUNWAY_THRESHOLD 0 ft AIRPORT_RUNWAY_HEADING 90
AIRPORT_RUNWAY 27 AIRPORT_RUNWAY_LENGTH 10499 ft AIRPORT_RUNWAY_WIDTH 148 ft
AIRPORT_RUNWAY_ELEVATION 1890 ft AIRPORT_RUNWAY_THRESHOLD 820 ft AIRPORT_RUNWAY_HEADING 270

 AIRPORT_AIRPORT_FREQUENCIES
AIRPORT_AIRPORT_NAVAIDS_TYPE TWR AIRPORT_AIRPORT_NAVAIDS_NAME TWR AIRPORT_AIRPORT_NAVAIDS_FREQ 118.6 MHZ

 AIRPORT_AIRPORT_NAVAIDS
AIRPORT_AIRPORT_NAVAIDS_TYPE VOR-DME AIRPORT_AIRPORT_NAVAIDS_NAME Saiss AIRPORT_AIRPORT_NAVAIDS_FREQ 115700 KHZ



Copyright © 2005-2019 - Virtuel Air Alsace - Tous droits réservés